createdAt,value
2023-04-09T00:02:06.541Z,10.60
2023-04-09T00:05:48.284Z,10.50
2023-04-09T00:09:30.444Z,10.40
2023-04-09T00:13:12.230Z,10.40
2023-04-09T00:16:54.635Z,10.40
2023-04-09T00:20:36.594Z,10.30
2023-04-09T00:24:18.488Z,10.30
2023-04-09T00:28:00.230Z,10.30
2023-04-09T00:31:42.082Z,10.30
2023-04-09T00:35:24.536Z,10.20
2023-04-09T00:39:06.258Z,10.20
2023-04-09T00:42:48.138Z,10.20
2023-04-09T00:46:31.134Z,10.20
2023-04-09T00:50:12.936Z,10.10
2023-04-09T00:53:55.971Z,10.10
2023-04-09T00:57:37.956Z,10.10
2023-04-09T01:01:19.724Z,10.10
2023-04-09T01:05:01.585Z,10.10
2023-04-09T01:09:01.586Z,10.00
2023-04-09T01:13:27.874Z,10.00
2023-04-09T01:17:48.324Z,9.90
2023-04-09T01:21:32.587Z,9.80
2023-04-09T01:25:53.037Z,9.70
2023-04-09T01:29:47.185Z,9.50
2023-04-09T01:33:30.983Z,9.50
2023-04-09T01:37:13.625Z,9.50
2023-04-09T01:40:57.446Z,9.40
2023-04-09T01:44:41.526Z,9.40
2023-04-09T01:48:24.369Z,9.40
2023-04-09T01:52:06.830Z,9.30
2023-04-09T01:55:48.577Z,9.30
2023-04-09T01:59:30.334Z,9.30
2023-04-09T02:03:23.341Z,9.20
2023-04-09T02:07:06.890Z,9.10
2023-04-09T02:10:55.403Z,9.10
2023-04-09T02:14:38.304Z,9.00
2023-04-09T02:18:24.797Z,9.10
2023-04-09T02:22:06.582Z,9.10
2023-04-09T02:25:48.521Z,9.10
2023-04-09T02:29:31.120Z,9.10
2023-04-09T02:33:12.845Z,9.20
2023-04-09T02:36:54.586Z,9.10
2023-04-09T02:40:36.279Z,9.10
2023-04-09T02:44:18.030Z,9.10
2023-04-09T02:47:59.744Z,9.20
2023-04-09T02:51:41.479Z,9.20
2023-04-09T02:55:23.300Z,9.10
2023-04-09T02:59:05.025Z,9.00
2023-04-09T03:02:46.842Z,8.90
2023-04-09T03:06:28.772Z,8.90
2023-04-09T03:10:11.162Z,8.90
2023-04-09T03:13:52.905Z,8.90
2023-04-09T03:17:34.693Z,8.90
2023-04-09T03:21:16.580Z,8.90
2023-04-09T03:24:58.273Z,9.00
2023-04-09T03:28:40.025Z,9.00
2023-04-09T03:32:21.741Z,9.00
2023-04-09T03:36:03.765Z,9.00
2023-04-09T03:39:45.533Z,9.00
2023-04-09T03:43:27.428Z,8.90
2023-04-09T03:47:09.152Z,8.90
2023-04-09T03:50:50.907Z,8.90
2023-04-09T03:54:32.997Z,8.70
2023-04-09T03:58:14.693Z,8.60
2023-04-09T04:01:56.641Z,8.40
2023-04-09T04:05:38.353Z,8.40
2023-04-09T04:09:20.156Z,8.40
2023-04-09T04:13:02.386Z,8.40
2023-04-09T04:16:44.225Z,8.40
2023-04-09T04:20:26.559Z,8.40
2023-04-09T04:24:08.298Z,8.40
2023-04-09T04:27:49.986Z,8.30
2023-04-09T04:31:31.763Z,8.30
2023-04-09T04:35:13.677Z,8.30
2023-04-09T04:38:55.480Z,8.30
2023-04-09T04:42:37.291Z,8.20
2023-04-09T04:46:20.567Z,8.20
2023-04-09T04:50:02.543Z,8.10
2023-04-09T04:53:44.279Z,8.10
2023-04-09T04:57:25.981Z,8.00
2023-04-09T05:01:07.913Z,8.00
2023-04-09T05:04:49.638Z,8.00
2023-04-09T05:08:31.764Z,7.90
2023-04-09T05:12:15.144Z,7.80
2023-04-09T05:15:56.846Z,7.80
2023-04-09T05:19:38.608Z,7.80
2023-04-09T05:23:20.332Z,7.80
2023-04-09T05:27:02.057Z,7.80
2023-04-09T05:30:47.440Z,7.80
2023-04-09T05:34:29.352Z,7.80
2023-04-09T05:38:11.201Z,7.80
2023-04-09T05:41:52.976Z,7.80
2023-04-09T05:45:34.680Z,7.80
2023-04-09T05:49:16.426Z,7.90
2023-04-09T05:52:58.142Z,8.00
2023-04-09T05:56:39.876Z,8.20
2023-04-09T06:00:21.997Z,8.30
2023-04-09T06:04:04.025Z,8.40
2023-04-09T06:07:46.186Z,8.50
2023-04-09T06:11:27.935Z,8.60
2023-04-09T06:15:10.233Z,8.70
2023-04-09T06:18:54.473Z,8.80
2023-04-09T06:22:36.352Z,8.90
2023-04-09T06:26:18.038Z,8.90
2023-04-09T06:29:59.745Z,8.90
2023-04-09T06:33:41.473Z,8.90
2023-04-09T06:37:23.154Z,8.90
2023-04-09T06:41:08.346Z,9.00
2023-04-09T06:44:50.534Z,8.90
2023-04-09T06:48:32.455Z,9.00
2023-04-09T06:52:14.158Z,9.00
2023-04-09T06:55:57.092Z,9.00
2023-04-09T06:59:38.995Z,9.10
2023-04-09T07:03:21.152Z,9.00
2023-04-09T07:07:03.165Z,9.10
2023-04-09T07:10:47.270Z,9.10
2023-04-09T07:14:29.013Z,9.10
2023-04-09T07:18:11.131Z,9.10
2023-04-09T07:21:52.954Z,9.10
2023-04-09T07:25:34.669Z,9.20
2023-04-09T07:29:16.346Z,9.20
2023-04-09T07:32:58.269Z,9.10
2023-04-09T07:36:41.236Z,9.10
2023-04-09T07:40:23.198Z,9.20
2023-04-09T07:44:06.388Z,9.30
2023-04-09T07:47:48.443Z,9.30
2023-04-09T07:51:31.464Z,9.30
2023-04-09T07:55:13.172Z,9.30
2023-04-09T07:58:55.166Z,9.40
2023-04-09T08:02:36.975Z,9.40
2023-04-09T08:06:18.742Z,9.40
2023-04-09T08:10:00.418Z,9.50
2023-04-09T08:13:42.155Z,9.50
2023-04-09T08:17:24.600Z,9.70
2023-04-09T08:21:07.100Z,9.80
2023-04-09T08:24:54.053Z,9.90
2023-04-09T08:28:35.784Z,10.10
2023-04-09T08:32:17.705Z,10.20
2023-04-09T08:36:00.842Z,10.40
2023-04-09T08:39:44.513Z,10.50
2023-04-09T08:43:41.953Z,10.50
2023-04-09T08:47:31.075Z,10.60
2023-04-09T08:51:17.031Z,10.70
2023-04-09T08:54:58.781Z,10.70
2023-04-09T08:58:45.298Z,10.80
2023-04-09T09:02:27.107Z,10.80
2023-04-09T09:06:22.013Z,10.90
2023-04-09T09:10:04.551Z,10.90
2023-04-09T09:13:46.393Z,11.00
2023-04-09T09:17:28.246Z,11.10
2023-04-09T09:21:14.748Z,11.10
2023-04-09T09:24:57.409Z,11.30
2023-04-09T09:28:39.220Z,11.40
2023-04-09T09:32:23.466Z,11.60
2023-04-09T09:36:05.694Z,11.70
2023-04-09T09:39:47.457Z,11.80
2023-04-09T09:43:41.244Z,11.90
2023-04-09T09:47:25.189Z,12.10
2023-04-09T09:51:11.812Z,12.20
2023-04-09T09:54:55.786Z,12.30
2023-04-09T09:58:54.833Z,12.40
2023-04-09T10:02:47.677Z,12.60
2023-04-09T10:06:30.852Z,12.80
2023-04-09T10:10:12.647Z,12.90
2023-04-09T10:13:58.847Z,13.00
2023-04-09T10:17:40.956Z,13.10
2023-04-09T10:21:25.453Z,13.30
2023-04-09T10:25:08.092Z,13.40
2023-04-09T10:29:06.989Z,13.60
2023-04-09T10:32:48.708Z,13.80
2023-04-09T10:36:31.835Z,13.90
2023-04-09T10:40:20.509Z,14.00
2023-04-09T10:44:06.573Z,14.20
2023-04-09T10:47:51.609Z,14.20
2023-04-09T10:51:38.796Z,14.30
2023-04-09T10:55:39.544Z,14.40
2023-04-09T10:59:21.260Z,14.50
2023-04-09T11:03:04.248Z,14.50
2023-04-09T11:06:47.418Z,14.60
2023-04-09T11:10:29.347Z,14.60
2023-04-09T11:14:11.107Z,14.70
2023-04-09T11:17:53.191Z,14.80
2023-04-09T11:21:36.332Z,14.90
2023-04-09T11:25:22.925Z,15.00
2023-04-09T11:29:09.176Z,15.20
2023-04-09T11:32:51.247Z,15.40
2023-04-09T11:36:34.804Z,15.60
2023-04-09T11:40:24.843Z,15.80
2023-04-09T11:44:08.161Z,15.90
2023-04-09T11:47:50.195Z,16.00
2023-04-09T11:51:32.692Z,16.10
2023-04-09T11:55:27.395Z,16.30
2023-04-09T11:59:10.073Z,16.40
2023-04-09T12:02:59.668Z,16.60
2023-04-09T12:06:42.629Z,16.80
2023-04-09T12:10:32.500Z,16.90
2023-04-09T12:14:18.581Z,17.00
2023-04-09T12:18:01.054Z,17.30
2023-04-09T12:21:58.342Z,17.40
2023-04-09T12:25:42.151Z,17.30
2023-04-09T12:29:25.899Z,17.30
2023-04-09T12:33:10.260Z,17.30
2023-04-09T12:36:52.748Z,17.40
2023-04-09T12:40:36.434Z,17.60
2023-04-09T12:44:18.139Z,17.70
2023-04-09T12:47:59.991Z,17.90
2023-04-09T12:51:41.735Z,18.10
2023-04-09T12:55:23.448Z,18.30
2023-04-09T12:59:05.992Z,18.40
2023-04-09T13:02:47.961Z,18.40
2023-04-09T13:06:29.840Z,18.40
2023-04-09T13:10:11.546Z,18.40
2023-04-09T13:13:53.705Z,18.30
2023-04-09T13:17:35.765Z,18.10
2023-04-09T13:21:18.839Z,18.10
2023-04-09T13:25:00.740Z,18.10
2023-04-09T13:28:42.441Z,18.00
2023-04-09T13:32:24.421Z,17.90
2023-04-09T13:36:06.711Z,18.10
2023-04-09T13:39:48.438Z,18.10
2023-04-09T13:43:30.186Z,18.10
2023-04-09T13:47:13.220Z,18.10
2023-04-09T13:50:55.018Z,18.10
2023-04-09T13:54:37.409Z,18.40
2023-04-09T13:58:20.044Z,18.60
2023-04-09T14:02:02.153Z,18.60
2023-04-09T14:05:43.931Z,18.60
2023-04-09T14:09:25.643Z,18.50
2023-04-09T14:13:10.476Z,18.30
2023-04-09T14:16:52.163Z,18.20
2023-04-09T14:20:35.530Z,18.10
2023-04-09T14:24:17.291Z,18.00
2023-04-09T14:27:59.111Z,18.00
2023-04-09T14:31:42.646Z,18.00
2023-04-09T14:35:24.618Z,17.80
2023-04-09T14:39:06.451Z,17.70
2023-04-09T14:42:48.594Z,17.40
2023-04-09T14:46:30.355Z,17.40
2023-04-09T14:50:12.898Z,17.30
2023-04-09T14:53:54.751Z,17.30
2023-04-09T14:57:36.685Z,17.10
2023-04-09T15:01:18.753Z,16.90
2023-04-09T15:05:01.066Z,16.90
2023-04-09T15:08:42.799Z,16.80
2023-04-09T15:12:24.640Z,16.80
2023-04-09T15:16:06.969Z,16.70
2023-04-09T15:19:48.768Z,16.60
2023-04-09T15:23:30.694Z,16.50
2023-04-09T15:27:12.418Z,16.40
2023-04-09T15:30:54.970Z,16.40
2023-04-09T15:34:36.866Z,16.30
2023-04-09T15:38:21.403Z,16.20
2023-04-09T15:42:03.339Z,16.20
2023-04-09T15:45:45.305Z,16.10
2023-04-09T15:49:27.136Z,16.00
2023-04-09T15:53:08.916Z,15.90
2023-04-09T15:56:50.624Z,15.90
2023-04-09T16:00:32.312Z,15.90
2023-04-09T16:04:15.406Z,15.80
2023-04-09T16:07:59.733Z,15.70
2023-04-09T16:11:41.759Z,15.70
2023-04-09T16:15:23.442Z,15.60
2023-04-09T16:19:05.317Z,15.60
2023-04-09T16:22:47.239Z,15.60
2023-04-09T16:26:28.986Z,15.60
2023-04-09T16:30:11.175Z,15.60
2023-04-09T16:33:52.973Z,15.50
2023-04-09T16:37:35.301Z,15.60
2023-04-09T16:41:17.011Z,15.60
2023-04-09T16:44:58.705Z,15.50
2023-04-09T16:48:41.753Z,15.40
2023-04-09T16:52:23.648Z,15.40
2023-04-09T16:56:06.637Z,15.30
2023-04-09T16:59:48.424Z,15.20
2023-04-09T17:03:30.558Z,15.10
2023-04-09T17:07:12.418Z,15.10
2023-04-09T17:11:01.747Z,15.00
2023-04-09T17:14:44.432Z,14.80
2023-04-09T17:18:26.405Z,14.80
2023-04-09T17:22:09.279Z,14.70
2023-04-09T17:25:51.004Z,14.70
2023-04-09T17:29:32.713Z,14.60
2023-04-09T17:33:14.628Z,14.60
2023-04-09T17:36:57.311Z,14.60
2023-04-09T17:40:39.089Z,14.50
2023-04-09T17:44:20.828Z,14.40
2023-04-09T17:48:02.909Z,14.40
2023-04-09T17:51:44.680Z,14.30
2023-04-09T17:55:27.264Z,14.20
2023-04-09T17:59:08.949Z,14.20
2023-04-09T18:02:54.437Z,14.10
2023-04-09T18:06:36.335Z,14.10
2023-04-09T18:10:18.097Z,14.00
2023-04-09T18:13:59.830Z,14.00
2023-04-09T18:17:41.718Z,13.90
2023-04-09T18:21:24.775Z,13.90
2023-04-09T18:25:07.221Z,13.90
2023-04-09T18:28:48.979Z,13.80
2023-04-09T18:32:31.064Z,13.70
2023-04-09T18:36:12.902Z,13.60
2023-04-09T18:39:54.744Z,13.50
2023-04-09T18:43:36.563Z,13.40
2023-04-09T18:47:18.392Z,13.40
2023-04-09T18:51:02.973Z,13.40
2023-04-09T18:54:44.679Z,13.30
2023-04-09T18:58:26.691Z,13.30
2023-04-09T19:02:08.655Z,13.20
2023-04-09T19:05:51.453Z,13.10
2023-04-09T19:09:33.608Z,13.10
2023-04-09T19:13:15.358Z,13.10
2023-04-09T19:16:58.671Z,13.10
2023-04-09T19:20:40.444Z,13.10
2023-04-09T19:24:22.166Z,13.10
2023-04-09T19:28:03.849Z,13.10
2023-04-09T19:31:46.384Z,13.00
2023-04-09T19:35:28.606Z,13.00
2023-04-09T19:39:11.079Z,13.00
2023-04-09T19:42:52.767Z,12.90
2023-04-09T19:46:34.669Z,13.00
2023-04-09T19:50:16.744Z,12.90
2023-04-09T19:53:58.497Z,12.90
2023-04-09T19:57:40.889Z,13.00
2023-04-09T20:01:22.811Z,12.90
2023-04-09T20:05:04.855Z,12.90
2023-04-09T20:08:46.723Z,12.90
2023-04-09T20:12:29.504Z,12.90
2023-04-09T20:16:11.300Z,12.90
2023-04-09T20:19:53.508Z,12.90
2023-04-09T20:23:35.658Z,12.90
2023-04-09T20:27:18.489Z,12.80
2023-04-09T20:31:03.078Z,12.80
2023-04-09T20:34:44.843Z,12.80
2023-04-09T20:38:26.648Z,12.80
2023-04-09T20:42:08.324Z,12.70
2023-04-09T20:45:50.178Z,12.70
2023-04-09T20:49:31.992Z,12.60
2023-04-09T20:53:13.753Z,12.60
2023-04-09T20:56:55.926Z,12.60
2023-04-09T21:00:37.642Z,12.50
2023-04-09T21:04:19.593Z,12.50
2023-04-09T21:08:01.508Z,12.50
2023-04-09T21:11:43.253Z,12.40
2023-04-09T21:15:25.205Z,12.40
2023-04-09T21:19:07.228Z,12.50
2023-04-09T21:22:49.010Z,12.40
2023-04-09T21:26:38.643Z,12.50
2023-04-09T21:30:32.273Z,12.50
2023-04-09T21:34:14.089Z,12.50
2023-04-09T21:37:56.730Z,12.50
2023-04-09T21:41:39.300Z,12.50
2023-04-09T21:45:21.170Z,12.40
2023-04-09T21:49:03.627Z,12.40
2023-04-09T21:52:46.775Z,12.40
2023-04-09T21:56:28.476Z,12.40
2023-04-09T22:00:11.100Z,12.40
2023-04-09T22:03:52.959Z,12.30
2023-04-09T22:07:37.204Z,12.30
2023-04-09T22:11:19.522Z,12.30
2023-04-09T22:15:01.473Z,12.20
2023-04-09T22:18:43.160Z,12.20
2023-04-09T22:22:25.039Z,12.20
2023-04-09T22:26:06.856Z,12.20
2023-04-09T22:29:48.555Z,12.10
2023-04-09T22:33:30.432Z,12.00
2023-04-09T22:37:12.436Z,11.90
2023-04-09T22:40:57.030Z,11.90
2023-04-09T22:44:40.058Z,11.80
2023-04-09T22:48:22.790Z,11.90
2023-04-09T22:52:05.561Z,11.80
2023-04-09T22:55:50.751Z,11.80
2023-04-09T22:59:40.015Z,11.70
2023-04-09T23:03:22.675Z,11.70
2023-04-09T23:07:04.728Z,11.60
2023-04-09T23:10:46.532Z,11.50
2023-04-09T23:14:28.317Z,11.50
2023-04-09T23:18:10.895Z,11.50
2023-04-09T23:21:52.632Z,11.50
2023-04-09T23:25:34.459Z,11.50
2023-04-09T23:29:16.156Z,11.50
2023-04-09T23:32:58.225Z,11.50
2023-04-09T23:36:40.044Z,11.40
2023-04-09T23:40:21.893Z,11.50
2023-04-09T23:44:03.776Z,11.50
2023-04-09T23:47:46.193Z,11.50
2023-04-09T23:51:27.981Z,11.40
2023-04-09T23:55:10.758Z,11.40
2023-04-09T23:58:52.528Z,11.40
